Time;durP1;ratioP1;P1;durP2;ratioP2;P2;SDS_P1;SDS_P2;PMS_P1;PMS_P2;Temp;Humidity;BMP_temperature;BMP_pressure;BME280_temperature;BME280_humidity;BME280_pressure;Samples;Min_cycle;Max_cycle;Signal;HPM_P1;HPM_P2
2021/11/28 00:01:14;;;;;;;91.90;36.50;;;5.20;99.90;;;;;;4961641;28;20481;-91
2021/11/28 00:03:40;;;;;;;89.38;37.03;;;5.10;99.90;;;;;;4961880;28;20425;-91
2021/11/28 00:06:19;;;;;;;79.07;34.63;;;5.10;99.90;;;;;;4961758;28;20034;-91
2021/11/28 00:11:31;;;;;;;93.03;40.80;;;5.10;99.90;;;;;;4959622;28;20083;-91
2021/11/28 00:16:29;;;;;;;113.18;45.00;;;5.10;99.90;;;;;;4959767;29;20030;-91
2021/11/28 00:18:55;;;;;;;101.63;40.30;;;5.10;99.90;;;;;;4942690;29;20075;-91
2021/11/28 00:21:21;;;;;;;109.93;41.08;;;5.10;99.90;;;;;;4942488;29;20039;-91
2021/11/28 00:23:47;;;;;;;114.57;40.97;;;5.10;99.90;;;;;;4942242;29;20059;-91
2021/11/28 00:26:14;;;;;;;117.43;39.85;;;5.10;99.90;;;;;;4942034;28;20542;-92
2021/11/28 00:28:40;;;;;;;90.47;37.90;;;5.00;99.90;;;;;;4942226;29;20107;-91
2021/11/28 00:31:07;;;;;;;91.25;38.22;;;5.00;99.90;;;;;;4942110;29;20027;-91
2021/11/28 00:33:33;;;;;;;138.65;43.58;;;5.00;99.90;;;;;;4959488;29;20031;-92
2021/11/28 00:35:59;;;;;;;99.82;37.50;;;4.90;99.90;;;;;;4942080;29;20359;-91
2021/11/28 00:38:25;;;;;;;92.07;33.95;;;4.90;99.90;;;;;;4942003;29;20031;-91
2021/11/28 00:40:51;;;;;;;104.28;36.85;;;4.90;99.90;;;;;;4941862;29;20096;-91
2021/11/28 00:43:18;;;;;;;91.03;36.20;;;4.90;99.90;;;;;;4942212;29;20185;-92
2021/11/28 00:45:45;;;;;;;98.25;37.20;;;4.80;99.90;;;;;;4942605;28;20031;-91
2021/11/28 00:48:10;;;;;;;92.32;37.33;;;4.80;99.90;;;;;;4961053;28;20033;-91
2021/11/28 00:53:06;;;;;;;111.40;38.50;;;4.80;99.90;;;;;;4978346;28;20050;-91
2021/11/28 00:55:32;;;;;;;133.57;39.25;;;4.80;99.90;;;;;;4978151;28;20099;-91
2021/11/28 00:57:58;;;;;;;132.23;42.22;;;4.80;99.90;;;;;;4960853;28;20031;-91
2021/11/28 01:00:23;;;;;;;157.05;40.50;;;4.70;99.90;;;;;;4960264;28;20398;-91
2021/11/28 01:02:49;;;;;;;187.60;42.63;;;4.70;99.90;;;;;;4960647;28;20027;-91
2021/11/28 01:05:15;;;;;;;131.73;36.08;;;4.60;99.90;;;;;;4960551;28;20054;-91
2021/11/28 01:07:41;;;;;;;113.95;38.10;;;4.60;99.90;;;;;;4941421;29;20085;-92
2021/11/28 01:10:09;;;;;;;158.80;43.80;;;4.60;99.90;;;;;;4941447;29;20126;-91
2021/11/28 01:12:35;;;;;;;353.67;60.63;;;4.50;99.90;;;;;;4941202;29;20079;-91
2021/11/28 01:15:02;;;;;;;215.07;42.63;;;4.50;99.90;;;;;;4941309;29;20114;-91
2021/11/28 01:17:31;;;;;;;162.93;42.20;;;4.50;99.90;;;;;;4941290;29;20028;-91
2021/11/28 01:19:57;;;;;;;277.38;51.70;;;4.40;99.90;;;;;;4941243;29;20553;-91
2021/11/28 01:22:23;;;;;;;177.70;44.20;;;4.40;99.90;;;;;;4941179;29;20065;-91
2021/11/28 01:24:49;;;;;;;143.82;40.28;;;4.40;99.90;;;;;;4941883;28;20359;-91
2021/11/28 01:27:16;;;;;;;210.15;47.13;;;4.30;99.90;;;;;;4960232;28;20023;-91
2021/11/28 01:29:42;;;;;;;226.23;46.05;;;4.30;99.90;;;;;;4977694;28;20054;-91
2021/11/28 01:32:10;;;;;;;445.48;68.65;;;4.30;99.90;;;;;;4960391;28;20477;-91
2021/11/28 01:34:36;;;;;;;198.73;49.15;;;4.30;99.90;;;;;;4977241;28;20524;-91
2021/11/28 01:37:03;;;;;;;171.75;44.78;;;4.20;99.90;;;;;;4977160;28;20026;-91
2021/11/28 01:39:29;;;;;;;201.80;46.00;;;4.20;99.90;;;;;;4960168;28;20437;-91
2021/11/28 01:41:55;;;;;;;323.40;58.47;;;4.20;99.90;;;;;;4959989;28;20049;-91
2021/11/28 01:44:21;;;;;;;264.02;51.00;;;4.20;99.90;;;;;;4976405;28;20038;-91
2021/11/28 01:46:47;;;;;;;96.07;37.08;;;4.10;99.90;;;;;;4940479;29;20035;-91
2021/11/28 01:49:14;;;;;;;163.98;44.50;;;4.10;99.90;;;;;;4940692;29;20030;-91
2021/11/28 01:51:40;;;;;;;417.90;64.53;;;4.10;99.90;;;;;;4957702;29;20027;-91
2021/11/28 01:54:12;;;;;;;141.43;45.13;;;4.10;99.90;;;;;;4940877;29;20023;-91
2021/11/28 01:56:42;;;;;;;184.35;51.05;;;4.10;99.90;;;;;;4940699;29;20022;-91
2021/11/28 01:59:09;;;;;;;124.80;46.33;;;4.10;99.90;;;;;;4940231;29;20117;-90
2021/11/28 02:01:35;;;;;;;99.20;39.55;;;4.10;99.90;;;;;;4940491;29;20019;-91
2021/11/28 02:04:03;;;;;;;96.95;39.70;;;4.10;99.90;;;;;;4941281;29;20028;-91
2021/11/28 02:06:29;;;;;;;100.40;41.30;;;4.20;99.90;;;;;;4940441;29;20493;-91
2021/11/28 02:08:56;;;;;;;111.70;40.10;;;4.20;99.90;;;;;;4940247;29;20031;-91
2021/11/28 02:11:22;;;;;;;85.53;37.15;;;4.20;99.90;;;;;;4939292;29;20044;-91
2021/11/28 02:13:48;;;;;;;124.10;40.13;;;4.30;99.90;;;;;;4940407;29;20027;-92
2021/11/28 02:16:15;;;;;;;190.80;46.97;;;4.30;99.90;;;;;;4940211;29;20035;-91
2021/11/28 02:18:41;;;;;;;270.67;55.15;;;4.30;99.90;;;;;;4940414;29;20035;-91
2021/11/28 02:21:09;;;;;;;197.32;46.47;;;4.30;99.90;;;;;;4939824;29;20113;-92
2021/11/28 02:23:36;;;;;;;192.63;42.78;;;4.30;99.90;;;;;;4952437;28;20090;-92
2021/11/28 02:26:06;;;;;;;296.58;57.38;;;4.20;99.90;;;;;;4958989;28;20552;-91
2021/11/28 02:28:33;;;;;;;320.92;52.50;;;4.20;99.90;;;;;;4959157;28;20061;-91
2021/11/28 02:30:59;;;;;;;308.58;52.15;;;4.20;99.90;;;;;;4958966;28;20025;-91
2021/11/28 02:33:25;;;;;;;384.38;61.30;;;4.10;99.90;;;;;;4959178;28;20122;-91
2021/11/28 02:35:51;;;;;;;286.20;51.15;;;4.10;99.90;;;;;;4958849;28;20388;-92
2021/11/28 02:38:17;;;;;;;304.75;56.95;;;4.00;99.90;;;;;;4958984;28;20026;-91
2021/11/28 02:40:43;;;;;;;314.70;57.58;;;4.00;99.90;;;;;;4976215;28;20027;-91
2021/11/28 02:43:09;;;;;;;284.63;49.88;;;4.00;99.90;;;;;;4975592;28;20023;-91
2021/11/28 02:45:36;;;;;;;123.07;37.28;;;3.90;99.90;;;;;;4975895;28;20081;-92
2021/11/28 02:48:05;;;;;;;90.00;35.65;;;3.90;99.90;;;;;;4958356;28;20027;-91
2021/11/28 02:50:31;;;;;;;80.17;33.40;;;3.90;99.90;;;;;;4958875;28;20027;-91
2021/11/28 02:53:01;;;;;;;139.55;40.13;;;3.90;99.90;;;;;;4958682;28;20031;-91
2021/11/28 02:55:35;;;;;;;176.93;43.00;;;3.90;99.90;;;;;;4975846;28;20029;-91
2021/11/28 02:58:00;;;;;;;263.50;50.22;;;3.90;99.90;;;;;;4958744;28;20030;-91
2021/11/28 03:00:30;;;;;;;104.00;39.13;;;3.90;99.90;;;;;;4958719;28;20034;-91
2021/11/28 03:02:56;;;;;;;99.18;36.80;;;3.90;99.90;;;;;;4958163;28;20483;-91
2021/11/28 03:05:22;;;;;;;150.63;44.78;;;3.90;99.90;;;;;;4958626;28;20027;-91
2021/11/28 03:07:48;;;;;;;108.28;36.88;;;3.90;99.90;;;;;;4958568;28;20034;-91
2021/11/28 03:10:39;;;;;;;87.65;33.85;;;3.90;99.90;;;;;;4958383;28;20513;-91
2021/11/28 03:13:14;;;;;;;94.85;36.97;;;3.90;99.90;;;;;;4958510;28;20035;-91
2021/11/28 03:15:40;;;;;;;108.13;37.63;;;3.90;99.90;;;;;;4958535;28;20018;-91
2021/11/28 03:18:14;;;;;;;98.65;34.30;;;3.90;99.90;;;;;;4975639;28;20049;-91
2021/11/28 03:20:41;;;;;;;93.70;32.17;;;3.90;99.90;;;;;;4958083;28;20031;-92
2021/11/28 03:23:10;;;;;;;208.65;45.50;;;4.00;99.90;;;;;;4958103;28;20049;-92
2021/11/28 03:25:36;;;;;;;159.93;38.08;;;4.00;99.90;;;;;;4958347;28;20027;-91
2021/11/28 03:28:02;;;;;;;227.45;44.60;;;3.90;99.90;;;;;;4975504;28;20070;-91
2021/11/28 03:30:28;;;;;;;145.05;37.55;;;3.90;99.90;;;;;;4958435;28;20055;-91
2021/11/28 03:32:54;;;;;;;120.97;36.42;;;3.90;99.90;;;;;;4958276;28;20027;-91
2021/11/28 03:35:20;;;;;;;66.32;28.83;;;3.80;99.90;;;;;;4958299;28;20474;-91
2021/11/28 03:37:46;;;;;;;113.57;33.30;;;3.80;99.90;;;;;;4958190;28;20058;-90
2021/11/28 03:40:13;;;;;;;135.07;35.10;;;3.80;99.90;;;;;;4957788;28;20046;-91
2021/11/28 03:42:39;;;;;;;143.32;34.83;;;3.80;99.90;;;;;;4939026;29;20085;-91
2021/11/28 03:45:09;;;;;;;99.03;29.13;;;3.80;99.90;;;;;;4939052;29;20085;-91
2021/11/28 03:47:35;;;;;;;214.02;40.90;;;3.80;99.90;;;;;;4938820;29;20035;-91
2021/11/28 03:50:05;;;;;;;457.65;57.20;;;3.80;99.90;;;;;;4939031;29;20478;-91
2021/11/28 03:52:31;;;;;;;293.75;45.72;;;3.80;99.90;;;;;;4939054;29;20486;-91
2021/11/28 03:54:57;;;;;;;182.77;37.92;;;3.80;99.90;;;;;;4938896;29;20035;-91
2021/11/28 03:57:23;;;;;;;155.23;35.97;;;3.80;99.90;;;;;;4938869;29;20024;-92
2021/11/28 03:59:49;;;;;;;302.95;48.72;;;3.80;99.90;;;;;;4938888;28;20031;-92
2021/11/28 04:02:16;;;;;;;213.88;40.88;;;3.80;99.90;;;;;;4957506;28;20503;-91
2021/11/28 04:04:42;;;;;;;354.67;51.22;;;3.90;99.90;;;;;;4958064;28;20031;-90
2021/11/28 04:07:08;;;;;;;255.57;44.03;;;3.80;99.90;;;;;;4957868;28;20390;-91
2021/11/28 04:09:34;;;;;;;228.60;36.53;;;3.70;99.90;;;;;;4957988;28;20077;-91
2021/11/28 04:12:00;;;;;;;217.50;34.60;;;3.70;99.90;;;;;;4957685;28;20051;-91
2021/11/28 04:14:26;;;;;;;539.72;59.38;;;3.60;99.90;;;;;;4958110;28;20113;-91
2021/11/28 04:16:51;;;;;;;198.65;26.08;;;3.60;99.90;;;;;;4958268;28;20030;-91
2021/11/28 04:19:17;;;;;;;204.52;28.33;;;3.60;99.90;;;;;;4957042;28;20540;-91
2021/11/28 04:21:45;;;;;;;152.52;26.08;;;3.60;99.90;;;;;;4938532;29;20027;-90
2021/11/28 04:24:11;;;;;;;153.32;27.50;;;3.70;99.90;;;;;;4942623;29;20528;-91
2021/11/28 04:26:37;;;;;;;452.17;54.10;;;3.70;99.90;;;;;;4941636;28;20030;-90
2021/11/28 04:29:03;;;;;;;172.82;28.45;;;3.80;99.90;;;;;;4957867;28;20532;-90
2021/11/28 04:31:29;;;;;;;172.43;26.30;;;3.80;99.90;;;;;;4955634;28;20023;-91
2021/11/28 04:33:55;;;;;;;281.77;36.80;;;3.80;99.90;;;;;;4956098;28;20031;-91
2021/11/28 04:36:21;;;;;;;118.20;22.58;;;3.80;99.90;;;;;;4941748;29;20030;-91
2021/11/28 04:38:46;;;;;;;150.15;28.42;;;3.80;99.90;;;;;;4942305;29;20516;-91
2021/11/28 04:41:12;;;;;;;239.98;33.83;;;3.70;99.90;;;;;;4942291;29;20082;-90
2021/11/28 04:43:38;;;;;;;312.15;44.25;;;3.70;99.90;;;;;;4955073;28;20035;-91
2021/11/28 04:46:03;;;;;;;189.45;35.15;;;3.60;99.90;;;;;;4961068;28;20062;-91
2021/11/28 04:48:29;;;;;;;103.18;23.27;;;3.70;99.90;;;;;;4961215;28;20022;-91
2021/11/28 04:50:55;;;;;;;211.70;34.33;;;3.50;99.90;;;;;;4960452;28;20031;-90
2021/11/28 04:53:21;;;;;;;270.35;34.13;;;3.50;99.90;;;;;;4961098;28;20023;-90
2021/11/28 04:55:47;;;;;;;253.98;37.72;;;3.60;99.90;;;;;;4960948;28;20112;-91
2021/11/28 04:58:13;;;;;;;324.85;39.38;;;3.50;99.90;;;;;;4960992;28;20115;-88
2021/11/28 05:00:39;;;;;;;148.50;24.42;;;3.50;99.90;;;;;;4960735;28;20073;-88
2021/11/28 05:03:05;;;;;;;181.27;30.10;;;3.40;99.90;;;;;;4964990;28;20031;-88
2021/11/28 05:05:31;;;;;;;122.70;19.02;;;3.30;99.90;;;;;;4958831;29;20038;-88
2021/11/28 05:07:57;;;;;;;130.73;20.50;;;3.10;99.90;;;;;;4941232;29;20039;-87
2021/11/28 05:10:23;;;;;;;275.45;34.60;;;3.10;99.90;;;;;;4941684;28;20047;-89
2021/11/28 14:49:41;;;;;;;185.63;62.03;;;6.70;99.90;;;;;;5090441;28;20416;-89
2021/11/28 14:52:09;;;;;;;185.57;64.00;;;6.70;99.90;;;;;;5090280;28;20028;-89
2021/11/28 14:54:37;;;;;;;186.98;66.68;;;6.70;99.90;;;;;;5089861;28;20124;-89
2021/11/28 14:57:09;;;;;;;197.30;64.57;;;6.70;99.90;;;;;;5090141;28;20115;-89
2021/11/28 15:00:01;;;;;;;176.20;63.38;;;6.80;99.90;;;;;;5089791;28;20557;-88
2021/11/28 15:02:32;;;;;;;169.10;61.83;;;6.80;99.90;;;;;;5085198;28;20028;-89
2021/11/28 15:05:03;;;;;;;178.90;66.80;;;6.90;99.90;;;;;;5089524;28;20028;-88
2021/11/28 15:07:31;;;;;;;153.18;56.50;;;6.80;99.90;;;;;;5089640;28;20028;-90
2021/11/28 15:10:00;;;;;;;157.68;57.13;;;6.90;99.90;;;;;;5089873;28;20032;-89
2021/11/28 15:12:28;;;;;;;165.13;58.15;;;6.90;99.90;;;;;;5090278;28;20062;-90
2021/11/28 15:15:06;;;;;;;195.88;76.32;;;7.00;99.90;;;;;;5078820;28;20140;-89
2021/11/28 15:17:33;;;;;;;191.48;71.90;;;7.00;99.90;;;;;;5089259;28;20050;-88
2021/11/28 15:20:20;;;;;;;165.90;62.40;;;6.90;99.90;;;;;;5083672;28;20020;-88
2021/11/28 15:22:49;;;;;;;163.52;62.75;;;7.00;99.90;;;;;;5089466;28;20093;-87
2021/11/28 15:25:18;;;;;;;171.77;63.28;;;7.00;99.90;;;;;;5078170;28;20028;-90
2021/11/28 15:27:44;;;;;;;183.35;72.85;;;7.00;99.90;;;;;;5069874;28;20125;-89
2021/11/28 15:30:14;;;;;;;168.98;65.53;;;7.00;99.90;;;;;;5073249;28;20028;-94
2021/11/28 15:32:42;;;;;;;161.63;64.75;;;7.00;99.90;;;;;;5070868;28;20023;-90
2021/11/28 15:35:11;;;;;;;152.40;60.35;;;7.10;99.90;;;;;;5070411;28;20025;-90
2021/11/28 15:37:41;;;;;;;146.80;56.72;;;7.10;99.90;;;;;;5069852;28;20476;-92
2021/11/28 15:40:09;;;;;;;155.60;65.00;;;7.10;99.90;;;;;;5070082;28;20024;-91
2021/11/28 15:42:36;;;;;;;255.35;114.10;;;7.10;99.90;;;;;;5069716;28;20060;-92
2021/11/28 15:45:02;;;;;;;272.20;131.85;;;7.10;99.90;;;;;;5069923;28;20032;-91
2021/11/28 15:47:28;;;;;;;153.80;65.32;;;7.20;99.90;;;;;;5069202;28;20045;-90
2021/11/28 15:49:54;;;;;;;147.60;56.88;;;7.20;99.90;;;;;;5053230;28;20028;-92
2021/11/28 15:52:20;;;;;;;141.30;54.92;;;7.20;99.90;;;;;;5054185;28;20021;-91
2021/11/28 15:54:45;;;;;;;150.05;56.08;;;7.20;99.90;;;;;;5073281;28;20059;-92
2021/11/28 15:57:11;;;;;;;144.73;53.95;;;7.30;99.90;;;;;;5065443;28;20467;-92
2021/11/28 15:59:37;;;;;;;140.43;54.88;;;7.20;99.90;;;;;;5046455;28;20029;-91
2021/11/28 16:02:03;;;;;;;142.45;56.28;;;7.30;99.90;;;;;;5040565;28;20025;-91
2021/11/28 16:04:29;;;;;;;143.80;53.28;;;7.30;99.90;;;;;;5040877;28;20033;-91
2021/11/28 16:06:55;;;;;;;155.63;67.32;;;7.40;99.90;;;;;;5047240;28;20024;-92
2021/11/28 16:09:20;;;;;;;167.68;76.82;;;7.40;99.90;;;;;;5047860;28;20155;-91
2021/11/28 16:11:47;;;;;;;150.02;57.53;;;7.50;99.90;;;;;;5039121;28;20023;-90
2021/11/28 16:14:13;;;;;;;139.23;54.88;;;7.50;99.90;;;;;;5043482;28;20032;-89
2021/11/28 16:16:39;;;;;;;138.73;53.92;;;7.40;99.90;;;;;;5053117;28;20025;-90
2021/11/28 16:19:06;;;;;;;139.25;53.35;;;7.40;99.90;;;;;;5038810;28;20111;-90
2021/11/28 16:21:32;;;;;;;140.43;52.78;;;7.40;99.90;;;;;;5052620;28;20032;-90
2021/11/28 16:23:58;;;;;;;140.35;48.85;;;7.50;99.90;;;;;;5046480;28;20056;-90
2021/11/28 16:26:26;;;;;;;138.30;50.17;;;7.50;99.90;;;;;;5038691;28;20047;-90
2021/11/28 16:28:52;;;;;;;132.43;50.53;;;7.50;99.90;;;;;;5055074;28;20058;-89
2021/11/28 16:31:18;;;;;;;139.18;54.70;;;7.50;99.90;;;;;;5058480;28;20032;-89
2021/11/28 16:33:44;;;;;;;139.73;50.95;;;7.50;99.90;;;;;;5058448;28;20025;-90
2021/11/28 16:36:10;;;;;;;136.75;49.33;;;7.50;99.90;;;;;;5052343;28;20074;-88
2021/11/28 16:38:38;;;;;;;141.68;50.33;;;7.60;99.90;;;;;;5069024;28;20028;-88
2021/11/28 16:41:04;;;;;;;133.88;48.88;;;7.60;99.90;;;;;;5058116;28;20386;-89
2021/11/28 16:43:30;;;;;;;147.35;53.78;;;7.60;99.90;;;;;;5050850;28;20025;-89
2021/11/28 16:45:55;;;;;;;151.43;51.45;;;7.60;99.90;;;;;;5045394;28;20020;-89
2021/11/28 16:48:21;;;;;;;145.07;51.83;;;7.60;99.90;;;;;;5058138;28;20045;-89
2021/11/28 16:50:48;;;;;;;147.63;51.88;;;7.60;99.90;;;;;;5071941;28;20096;-89
2021/11/28 16:53:14;;;;;;;136.82;51.42;;;7.60;99.90;;;;;;5074575;28;20497;-89
2021/11/28 16:55:40;;;;;;;153.40;55.13;;;7.60;99.90;;;;;;5074081;28;20100;-88
2021/11/28 16:58:07;;;;;;;151.73;58.25;;;7.60;99.90;;;;;;5061959;28;20529;-89
2021/11/28 17:00:33;;;;;;;146.10;56.30;;;7.60;99.90;;;;;;5055608;28;20493;-89
2021/11/28 17:02:59;;;;;;;137.07;50.53;;;7.60;99.90;;;;;;5054115;28;20029;-88
2021/11/28 17:05:25;;;;;;;145.55;55.08;;;7.70;99.90;;;;;;5055414;28;20029;-89
2021/11/28 17:07:51;;;;;;;158.25;53.97;;;7.60;99.90;;;;;;5058108;28;20052;-90
2021/11/28 17:10:23;;;;;;;147.82;54.05;;;7.60;99.90;;;;;;5071927;28;20028;-88
2021/11/28 17:12:55;;;;;;;141.50;49.80;;;7.70;99.90;;;;;;5074247;28;20099;-88
2021/11/28 17:15:21;;;;;;;122.38;50.00;;;7.70;99.90;;;;;;5054041;28;20075;-87
2021/11/28 17:17:47;;;;;;;123.07;49.65;;;7.70;99.90;;;;;;5054251;28;20425;-88
2021/11/28 17:20:15;;;;;;;128.48;48.72;;;7.70;99.90;;;;;;5064972;28;20033;-88
2021/11/28 17:22:41;;;;;;;123.20;46.15;;;7.70;99.90;;;;;;5073880;28;20031;-89
2021/11/28 17:25:08;;;;;;;108.35;42.60;;;7.70;99.90;;;;;;5073701;28;20495;-89
2021/11/28 17:27:34;;;;;;;118.53;45.72;;;7.70;99.90;;;;;;5074324;28;20035;-91
2021/11/28 17:30:00;;;;;;;117.70;45.60;;;7.70;99.90;;;;;;5067416;28;20017;-89
2021/11/28 17:32:26;;;;;;;126.18;47.85;;;7.70;99.90;;;;;;5060187;28;20159;-90
2021/11/28 17:34:52;;;;;;;113.50;47.47;;;7.70;99.90;;;;;;5060730;28;20475;-95
2021/11/28 17:37:17;;;;;;;126.75;46.25;;;7.60;99.90;;;;;;5059367;28;20031;-91
2021/11/28 17:39:43;;;;;;;131.73;47.35;;;7.60;99.90;;;;;;5063100;28;20017;-92
2021/11/28 17:42:09;;;;;;;145.55;48.55;;;7.60;99.90;;;;;;5042228;28;20120;-91
2021/11/28 17:44:35;;;;;;;150.45;48.55;;;7.60;99.90;;;;;;5045104;28;20069;-95
2021/11/28 17:47:02;;;;;;;140.45;49.30;;;7.60;99.90;;;;;;5065030;28;20009;-96
2021/11/28 17:49:28;;;;;;;146.02;50.15;;;7.50;99.90;;;;;;5052260;28;20053;-94
2021/11/28 17:51:54;;;;;;;147.93;51.33;;;7.50;99.90;;;;;;5064319;28;20032;-96
2021/11/28 17:54:20;;;;;;;168.45;54.10;;;7.50;99.90;;;;;;5064962;28;20425;-95
2021/11/28 17:56:46;;;;;;;167.32;50.72;;;7.50;99.90;;;;;;5050153;28;20028;-95
2021/11/28 17:59:13;;;;;;;162.82;51.45;;;7.50;99.90;;;;;;5063671;28;20084;-92
2021/11/28 18:01:41;;;;;;;147.80;50.05;;;7.50;99.90;;;;;;5040549;28;20096;-90
2021/11/28 18:04:07;;;;;;;175.00;51.92;;;7.50;99.90;;;;;;5054284;28;20025;-92
2021/11/28 18:06:33;;;;;;;172.35;51.83;;;7.50;99.90;;;;;;5055083;28;20430;-92
2021/11/28 18:08:58;;;;;;;165.70;50.08;;;7.50;99.90;;;;;;5058866;28;20088;-94
2021/11/28 18:11:24;;;;;;;149.30;46.80;;;7.50;99.90;;;;;;5058876;28;20025;-95
2021/11/28 18:13:50;;;;;;;170.68;50.15;;;7.50;99.90;;;;;;5056062;28;20017;-94
2021/11/28 18:16:16;;;;;;;173.27;50.35;;;7.50;99.90;;;;;;5055490;28;20046;-94
2021/11/28 18:18:42;;;;;;;190.35;51.35;;;7.50;99.90;;;;;;5058498;28;20028;-93
2021/11/28 18:21:07;;;;;;;228.30;53.78;;;7.50;99.90;;;;;;5057327;28;20047;-93
2021/11/28 18:23:33;;;;;;;183.48;47.95;;;7.40;99.90;;;;;;5060161;28;20021;-95
2021/11/28 18:25:59;;;;;;;212.02;53.20;;;7.50;99.90;;;;;;5059460;28;20029;-94
2021/11/28 18:28:25;;;;;;;207.75;51.25;;;7.40;99.90;;;;;;5059943;28;20175;-94
2021/11/28 18:30:52;;;;;;;200.02;49.92;;;7.40;99.90;;;;;;5062154;28;20486;-94
2021/11/28 18:33:17;;;;;;;197.02;50.45;;;7.40;99.90;;;;;;5061247;28;20037;-94
2021/11/28 18:35:43;;;;;;;183.20;47.38;;;7.30;99.90;;;;;;5059485;28;20074;-94
2021/11/28 18:38:10;;;;;;;203.20;47.42;;;7.40;99.90;;;;;;5061697;28;20539;-94
2021/11/28 18:40:36;;;;;;;184.85;43.33;;;7.40;99.90;;;;;;5058632;28;20021;-95
2021/11/28 18:43:03;;;;;;;258.70;48.20;;;7.40;99.90;;;;;;5057886;28;20025;-95
2021/11/28 18:45:29;;;;;;;201.88;46.33;;;7.30;99.90;;;;;;5057382;28;20056;-93
2021/11/28 18:47:56;;;;;;;204.38;46.78;;;7.30;99.90;;;;;;5056768;28;20037;-93
2021/11/28 18:50:25;;;;;;;170.60;44.60;;;7.30;99.90;;;;;;5056696;28;20078;-94
2021/11/28 18:52:53;;;;;;;160.48;47.78;;;7.30;99.90;;;;;;5064113;28;20163;-96
2021/11/28 19:01:22;;;;;;;172.88;43.20;;;7.40;99.90;;;;;;5011284;28;20041;-96
2021/11/28 19:03:48;;;;;;;179.05;51.63;;;7.40;99.90;;;;;;4978283;28;20050;-95
2021/11/28 19:06:15;;;;;;;200.00;48.80;;;7.50;99.90;;;;;;5010968;28;20034;-96
2021/11/28 19:08:45;;;;;;;145.00;36.17;;;7.50;99.90;;;;;;4972541;28;20038;-95
2021/11/28 19:11:13;;;;;;;133.10;35.72;;;7.50;99.90;;;;;;4975551;28;20049;-96
2021/11/28 19:13:45;;;;;;;141.55;37.85;;;7.60;99.90;;;;;;4980160;28;20038;-96
2021/11/28 19:19:11;;;;;;;118.95;42.90;;;7.60;99.90;;;;;;5693470;23;20070;-96
2021/11/28 19:21:38;;;;;;;160.60;48.45;;;7.60;99.90;;;;;;5315366;23;20026;31
2021/11/28 19:24:09;;;;;;;132.20;44.78;;;7.50;99.90;;;;;;4922358;29;20070;-96
2021/11/28 19:31:46;;;;;;;122.10;37.35;;;7.60;99.90;;;;;;5617218;23;20054;-94
2021/11/28 19:37:12;;;;;;;179.57;57.15;;;7.70;99.90;;;;;;5610275;23;19922;-96
2021/11/28 19:47:46;;;;;;;203.77;60.67;;;7.70;99.90;;;;;;4965915;28;20046;-96
2021/11/28 19:52:45;;;;;;;185.75;52.38;;;7.70;99.90;;;;;;5191284;23;20061;-96
2021/11/28 19:55:28;;;;;;;161.95;45.75;;;7.70;99.90;;;;;;4960831;28;20058;-96
2021/11/28 20:13:55;;;;;;;158.10;47.20;;;7.70;99.90;;;;;;5417053;23;20055;-92
2021/11/28 20:16:21;;;;;;;157.68;47.65;;;7.70;99.90;;;;;;4942048;29;20062;-92
2021/11/28 20:18:47;;;;;;;150.63;46.13;;;7.70;99.90;;;;;;4941888;29;20031;-92
2021/11/28 20:21:13;;;;;;;137.75;43.35;;;7.80;99.90;;;;;;4941894;29;20031;-91
2021/11/28 20:23:38;;;;;;;136.75;42.45;;;7.80;99.90;;;;;;4941673;29;20470;-92
2021/11/28 20:26:04;;;;;;;141.32;44.38;;;7.90;99.90;;;;;;4941580;29;20023;-91
2021/11/28 20:28:31;;;;;;;154.55;45.22;;;7.90;99.90;;;;;;4941566;29;20031;-92
2021/11/28 20:30:59;;;;;;;131.30;41.90;;;7.90;99.90;;;;;;4955152;29;20034;-96
2021/11/28 20:33:46;;;;;;;150.10;44.40;;;7.90;99.90;;;;;;4964852;29;20035;-96
2021/11/28 20:36:36;;;;;;;147.00;46.00;;;7.90;99.90;;;;;;4962550;29;20019;-96
2021/11/28 20:41:53;;;;;;;153.73;47.05;;;8.00;99.90;;;;;;5118456;23;20110;-96
2021/11/28 20:44:23;;;;;;;153.48;45.20;;;8.00;99.90;;;;;;4974832;29;20022;-96
2021/11/28 20:46:52;;;;;;;140.10;41.40;;;8.00;99.90;;;;;;4944594;28;20039;-95
2021/11/28 20:59:39;;;;;;;109.15;36.03;;;8.00;99.90;;;;;;5465324;23;20062;-96
2021/11/28 21:02:11;;;;;;;102.55;35.15;;;8.00;99.90;;;;;;4957616;29;20086;-96
2021/11/28 21:04:37;;;;;;;109.47;35.28;;;8.10;99.90;;;;;;4942526;29;20035;-96
2021/11/28 21:51:18;;;;;;;199.18;40.83;;;8.00;99.90;;;;;;5013896;28;20065;-96
2021/11/28 21:53:48;;;;;;;181.15;37.53;;;8.00;99.90;;;;;;4999992;28;20011;-96
2021/11/28 21:59:00;;;;;;;202.05;38.50;;;8.00;99.90;;;;;;5420223;23;19926;-96
2021/11/28 22:01:27;;;;;;;234.80;40.55;;;8.00;99.90;;;;;;4960359;28;20054;-96
2021/11/28 22:04:03;;;;;;;201.15;37.08;;;8.00;99.90;;;;;;4974036;28;20389;-96
2021/11/28 22:06:34;;;;;;;154.98;33.20;;;8.00;99.90;;;;;;4965295;28;20093;-96
2021/11/28 22:09:00;;;;;;;181.00;33.90;;;8.00;99.90;;;;;;4967867;28;20053;-96
2021/11/28 22:11:26;;;;;;;225.10;38.53;;;8.00;99.90;;;;;;4947618;28;20125;-94
2021/11/28 22:13:52;;;;;;;252.68;38.75;;;8.10;99.90;;;;;;4961382;28;20105;-93
2021/11/28 22:16:18;;;;;;;197.20;36.20;;;8.00;99.90;;;;;;4963859;28;20074;-95
2021/11/28 22:18:44;;;;;;;157.27;31.58;;;8.00;99.90;;;;;;4962738;28;20031;-94
2021/11/28 22:21:10;;;;;;;172.77;31.75;;;8.00;99.90;;;;;;4961166;28;20033;-95
2021/11/28 22:23:36;;;;;;;235.05;37.65;;;8.00;99.90;;;;;;4960411;28;20072;-95
2021/11/28 22:26:02;;;;;;;241.20;39.00;;;8.00;99.90;;;;;;4961048;28;20023;-93
2021/11/28 22:28:28;;;;;;;151.02;30.42;;;8.00;99.90;;;;;;4961640;28;20031;-95
2021/11/28 22:30:54;;;;;;;178.15;33.20;;;8.00;99.90;;;;;;4961561;28;20532;-95
2021/11/28 22:33:20;;;;;;;203.80;37.00;;;8.00;99.90;;;;;;4960838;28;20027;-95
2021/11/28 22:35:47;;;;;;;277.00;41.33;;;8.00;99.90;;;;;;4962202;28;20118;-94
2021/11/28 22:38:15;;;;;;;179.65;33.00;;;8.00;99.90;;;;;;4964632;28;20026;-95
2021/11/28 22:40:41;;;;;;;286.58;42.45;;;8.00;99.90;;;;;;4965526;28;20030;-95
2021/11/28 22:43:08;;;;;;;184.73;33.72;;;8.00;99.90;;;;;;4961378;28;20038;-96
2021/11/28 22:45:36;;;;;;;223.57;35.00;;;7.90;99.90;;;;;;4959757;28;20050;-94
2021/11/28 22:48:04;;;;;;;241.73;38.90;;;7.90;99.90;;;;;;4960262;28;20077;-94
2021/11/28 22:50:31;;;;;;;251.38;41.70;;;8.00;99.90;;;;;;4959658;28;20026;-95
2021/11/28 22:52:59;;;;;;;206.70;37.45;;;8.00;99.90;;;;;;4959458;28;20054;-95
2021/11/28 22:55:25;;;;;;;226.77;39.88;;;8.00;99.90;;;;;;4959998;28;20057;-95
2021/11/28 22:57:52;;;;;;;264.88;44.28;;;7.90;99.90;;;;;;4962713;28;20081;-93
2021/11/28 23:00:26;;;;;;;299.58;46.72;;;7.90;99.90;;;;;;4979239;28;20098;-94
2021/11/28 23:02:55;;;;;;;369.75;48.92;;;7.90;99.90;;;;;;4979584;28;20022;-96
2021/11/28 23:05:21;;;;;;;304.75;43.05;;;7.90;99.90;;;;;;4979280;28;20121;-95
2021/11/28 23:07:47;;;;;;;262.48;43.85;;;7.90;99.90;;;;;;4982010;28;20081;-95
2021/11/28 23:10:13;;;;;;;279.85;43.83;;;7.90;99.90;;;;;;4980603;28;20027;-96
2021/11/28 23:12:39;;;;;;;273.30;44.50;;;7.90;99.90;;;;;;4982348;28;20022;-96
2021/11/28 23:15:08;;;;;;;312.63;45.47;;;7.90;99.90;;;;;;4982160;28;20026;-96
2021/11/28 23:17:34;;;;;;;215.95;39.72;;;7.90;99.90;;;;;;4986288;28;20050;-96
2021/11/28 23:20:03;;;;;;;193.00;34.22;;;7.90;99.90;;;;;;4983396;28;20022;-95
2021/11/28 23:22:29;;;;;;;215.90;36.47;;;8.00;99.90;;;;;;4986583;28;20097;-96
2021/11/28 23:24:55;;;;;;;263.85;37.20;;;8.00;99.90;;;;;;4986289;28;20030;-96
2021/11/28 23:27:20;;;;;;;282.63;37.65;;;8.00;99.90;;;;;;4984329;28;20022;-95
2021/11/28 23:29:47;;;;;;;304.48;41.58;;;8.00;99.90;;;;;;4984959;28;20073;-95
2021/11/28 23:32:13;;;;;;;210.98;34.85;;;8.00;99.90;;;;;;4984425;28;20026;-95
2021/11/28 23:34:39;;;;;;;261.08;37.35;;;8.00;99.90;;;;;;4985176;28;20022;-96
2021/11/28 23:37:06;;;;;;;291.95;44.28;;;8.10;99.90;;;;;;4984442;28;20023;-95
2021/11/28 23:39:32;;;;;;;292.90;42.63;;;8.00;99.90;;;;;;4983065;28;20026;-96
2021/11/28 23:41:58;;;;;;;366.90;47.25;;;7.90;99.90;;;;;;4985171;28;20057;-94
2021/11/28 23:44:25;;;;;;;195.77;34.42;;;8.00;99.90;;;;;;4985642;28;20109;-95
2021/11/28 23:46:52;;;;;;;312.13;40.38;;;8.00;99.90;;;;;;4981954;28;20026;-95
2021/11/28 23:49:18;;;;;;;284.08;40.17;;;8.00;99.90;;;;;;4981795;28;20026;-95
2021/11/28 23:51:43;;;;;;;237.00;39.50;;;8.00;99.90;;;;;;4981201;28;20467;-95
2021/11/28 23:54:10;;;;;;;320.98;44.10;;;8.00;99.90;;;;;;4998575;28;20508;-94
2021/11/28 23:56:37;;;;;;;293.52;41.17;;;8.00;99.90;;;;;;4980606;28;20033;-94